Time;durP1;ratioP1;P1;durP2;ratioP2;P2;SDS_P1;SDS_P2;PMS_P1;PMS_P2;Temp;Humidity;BMP_temperature;BMP_pressure;BME280_temperature;BME280_humidity;BME280_pressure;Samples;Min_cycle;Max_cycle;Signal;HPM_P1;HPM_P2
2021/03/19 00:00:16;;;;;;;13.68;6.93;;;3.20;89.90;;;;;;5029425;28;20251;-74
2021/03/19 00:02:42;;;;;;;13.35;7.45;;;3.20;90.30;;;;;;5043333;28;20196;-72
2021/03/19 00:05:13;;;;;;;12.45;7.35;;;3.20;90.60;;;;;;5042408;28;20776;-72
2021/03/19 00:07:40;;;;;;;12.00;6.93;;;3.10;90.40;;;;;;5018460;28;20188;-74
2021/03/19 00:10:07;;;;;;;14.63;7.07;;;3.10;90.70;;;;;;5031102;28;20264;-72
2021/03/19 00:12:33;;;;;;;13.87;7.53;;;3.10;90.70;;;;;;5043438;28;20204;-71
2021/03/19 00:14:59;;;;;;;11.77;6.60;;;3.00;90.60;;;;;;5043724;28;20447;-73
2021/03/19 00:17:24;;;;;;;12.90;7.97;;;3.00;90.80;;;;;;5053513;28;20419;-74
2021/03/19 00:19:50;;;;;;;15.17;8.63;;;3.00;91.00;;;;;;5053995;28;20264;-72
2021/03/19 00:22:16;;;;;;;15.43;8.47;;;2.90;91.30;;;;;;5045360;28;20185;-71
2021/03/19 00:24:42;;;;;;;15.27;8.30;;;2.80;91.80;;;;;;5043332;28;20196;-71
2021/03/19 00:27:07;;;;;;;14.00;7.67;;;2.80;92.00;;;;;;5038187;28;20250;-72
2021/03/19 00:29:33;;;;;;;15.30;9.17;;;2.80;92.30;;;;;;5037405;28;20687;-72
2021/03/19 00:31:59;;;;;;;17.60;8.80;;;2.80;92.50;;;;;;5040889;28;20576;-73
2021/03/19 00:34:24;;;;;;;16.60;8.70;;;3.00;92.60;;;;;;5032049;28;20217;-71
2021/03/19 00:36:50;;;;;;;12.80;8.67;;;2.90;92.50;;;;;;5021235;28;20181;-71
2021/03/19 00:39:16;;;;;;;16.13;8.63;;;2.90;92.60;;;;;;5033733;28;20219;-73
2021/03/19 00:41:42;;;;;;;17.07;7.60;;;2.90;92.50;;;;;;5032512;28;20189;-72
2021/03/19 00:44:07;;;;;;;14.73;7.47;;;2.90;92.50;;;;;;5027199;28;20289;-71
2021/03/19 00:46:33;;;;;;;13.60;7.10;;;2.80;92.50;;;;;;5047910;28;20190;-73
2021/03/19 00:48:59;;;;;;;13.70;6.90;;;2.80;92.50;;;;;;5030826;28;20266;-74
2021/03/19 00:51:24;;;;;;;15.30;7.50;;;2.80;92.90;;;;;;5037200;28;20203;-73
2021/03/19 00:53:50;;;;;;;12.13;7.30;;;3.00;92.90;;;;;;5053570;28;20238;-73
2021/03/19 00:56:16;;;;;;;15.57;7.50;;;3.00;92.80;;;;;;5037641;28;20571;-72
2021/03/19 00:58:42;;;;;;;13.40;8.50;;;3.00;93.00;;;;;;5038558;28;20420;-72
2021/03/19 01:01:07;;;;;;;16.27;8.23;;;3.00;92.80;;;;;;5045476;28;20249;-72
2021/03/19 01:03:33;;;;;;;16.80;7.80;;;3.00;92.80;;;;;;5043075;28;20212;-72
2021/03/19 01:06:00;;;;;;;12.30;7.13;;;3.00;93.00;;;;;;5031521;28;20190;-71
2021/03/19 01:08:26;;;;;;;13.55;7.70;;;3.00;92.90;;;;;;5037687;28;20271;-71
2021/03/19 01:10:55;;;;;;;14.50;7.27;;;3.00;92.70;;;;;;5029202;28;20268;-71
2021/03/19 01:13:22;;;;;;;16.48;8.68;;;2.90;92.80;;;;;;5039666;28;20354;-71
2021/03/19 01:15:48;;;;;;;18.53;8.63;;;2.90;93.10;;;;;;5032132;28;20249;-73
2021/03/19 01:18:17;;;;;;;18.58;9.02;;;2.90;93.50;;;;;;5035133;28;20423;-72
2021/03/19 01:20:44;;;;;;;15.20;8.05;;;2.90;93.70;;;;;;5046086;28;20658;-74
2021/03/19 01:23:11;;;;;;;14.40;8.95;;;2.90;93.80;;;;;;5042844;28;20204;-73
2021/03/19 01:25:37;;;;;;;14.70;8.43;;;2.90;93.90;;;;;;5043441;28;20662;-74
2021/03/19 01:28:03;;;;;;;16.27;7.93;;;2.90;93.80;;;;;;5051376;28;20242;-73
2021/03/19 01:30:34;;;;;;;16.75;8.95;;;2.90;93.80;;;;;;5041616;28;20803;-73
2021/03/19 01:32:59;;;;;;;17.03;8.67;;;2.80;93.90;;;;;;5041573;28;20205;-73
2021/03/19 01:35:29;;;;;;;17.50;8.67;;;2.90;94.00;;;;;;5026268;28;20417;-75
2021/03/19 01:37:55;;;;;;;17.13;8.85;;;2.90;93.80;;;;;;5023981;28;20185;-70
2021/03/19 01:40:24;;;;;;;16.80;9.00;;;2.80;93.50;;;;;;5018784;28;20199;-70
2021/03/19 01:42:56;;;;;;;16.73;8.45;;;2.70;93.70;;;;;;5023290;28;20252;-71
2021/03/19 01:45:59;;;;;;;18.38;8.90;;;2.60;94.10;;;;;;5049290;28;20250;-73
2021/03/19 01:49:02;;;;;;;14.45;8.57;;;2.60;94.30;;;;;;5018847;28;20211;-72
2021/03/19 01:52:05;;;;;;;20.05;8.55;;;2.70;94.60;;;;;;5023137;28;20377;-74
2021/03/19 01:55:08;;;;;;;18.33;9.80;;;2.70;94.70;;;;;;5044594;28;20218;-72
2021/03/19 01:58:12;;;;;;;19.27;9.98;;;2.70;94.90;;;;;;5055260;28;20192;-74
2021/03/19 02:01:15;;;;;;;21.40;8.88;;;2.60;94.80;;;;;;5041241;28;20184;-71
2021/03/19 02:04:18;;;;;;;14.13;8.50;;;2.50;94.80;;;;;;5049107;28;20215;-73
2021/03/19 02:07:21;;;;;;;20.27;9.35;;;2.50;94.80;;;;;;5049469;28;20268;-72
2021/03/19 02:10:24;;;;;;;19.13;9.20;;;2.40;94.70;;;;;;5053452;28;20651;-73
2021/03/19 02:13:27;;;;;;;14.40;8.23;;;2.40;94.60;;;;;;5023131;28;20215;-74
2021/03/19 02:16:30;;;;;;;14.88;8.50;;;2.40;94.70;;;;;;5022294;28;20188;-73
2021/03/19 02:19:33;;;;;;;16.20;8.82;;;2.40;94.70;;;;;;5019292;28;20628;-72
2021/03/19 02:22:37;;;;;;;19.13;8.85;;;2.30;94.70;;;;;;5044654;28;20553;-74
2021/03/19 02:25:40;;;;;;;21.38;9.88;;;2.20;94.80;;;;;;5032169;28;20792;-73
2021/03/19 02:28:43;;;;;;;21.15;9.07;;;2.10;95.00;;;;;;5034576;28;20177;-72
2021/03/19 02:31:14;;;;;;;22.40;10.55;;;2.20;95.10;;;;;;5045781;28;20674;-73
2021/03/19 02:33:45;;;;;;;24.25;10.90;;;2.10;95.10;;;;;;5050482;28;20227;-71
2021/03/19 02:36:12;;;;;;;19.52;10.50;;;2.20;95.30;;;;;;5018737;28;20201;-72
2021/03/19 02:38:38;;;;;;;21.80;11.38;;;2.20;95.40;;;;;;5042573;28;20204;-71
2021/03/19 02:41:06;;;;;;;19.20;10.47;;;2.20;95.40;;;;;;5045442;28;20188;-71
2021/03/19 02:43:32;;;;;;;21.65;10.90;;;2.20;95.50;;;;;;5027159;28;20205;-71
2021/03/19 02:45:58;;;;;;;23.73;10.90;;;2.30;95.30;;;;;;5033292;28;20561;-70
2021/03/19 02:48:24;;;;;;;22.10;10.47;;;2.40;95.00;;;;;;5035254;28;20702;-70
2021/03/19 02:50:50;;;;;;;19.60;10.57;;;2.40;94.60;;;;;;5045416;28;20690;-72
2021/03/19 02:53:18;;;;;;;18.80;11.07;;;2.40;94.40;;;;;;5039884;28;20726;-72
2021/03/19 02:55:44;;;;;;;21.10;11.27;;;2.40;94.30;;;;;;5038023;28;20432;-72
2021/03/19 02:58:10;;;;;;;20.60;11.47;;;2.50;94.40;;;;;;5044224;28;20191;-72
2021/03/19 03:00:36;;;;;;;20.00;10.70;;;2.50;94.20;;;;;;5049331;28;20963;-73
2021/03/19 03:03:03;;;;;;;22.47;11.47;;;2.60;93.90;;;;;;5046245;28;21024;-71
2021/03/19 03:05:28;;;;;;;19.00;11.15;;;2.50;93.40;;;;;;5036427;28;20501;-72
2021/03/19 03:07:54;;;;;;;21.17;10.77;;;2.40;93.50;;;;;;5042923;28;20189;-72
2021/03/19 03:10:21;;;;;;;25.07;12.47;;;2.50;93.70;;;;;;5046473;28;20198;-73
2021/03/19 03:12:47;;;;;;;17.55;10.13;;;2.50;93.50;;;;;;5041768;28;20224;-71
2021/03/19 03:15:17;;;;;;;23.67;12.03;;;2.50;93.40;;;;;;5033876;28;20177;-71
2021/03/19 03:17:43;;;;;;;23.52;11.45;;;2.50;93.50;;;;;;5042540;28;20423;-72
2021/03/19 03:20:13;;;;;;;20.00;11.00;;;2.50;93.50;;;;;;5045112;28;20216;-73
2021/03/19 03:23:20;;;;;;;24.00;11.57;;;2.60;93.60;;;;;;5042109;28;20418;-71
2021/03/19 03:25:47;;;;;;;19.57;10.70;;;2.60;93.60;;;;;;5022376;28;20495;-72
2021/03/19 03:28:13;;;;;;;17.55;10.07;;;2.70;93.40;;;;;;5036578;28;20420;-72
2021/03/19 03:30:46;;;;;;;21.60;11.35;;;2.80;92.80;;;;;;5043115;28;20189;-72
2021/03/19 03:33:13;;;;;;;24.38;11.50;;;2.80;92.60;;;;;;5036616;28;20212;-73
2021/03/19 03:35:40;;;;;;;20.10;11.30;;;2.80;92.70;;;;;;5025347;28;20560;-73
2021/03/19 03:38:09;;;;;;;22.27;10.45;;;2.80;92.50;;;;;;5029419;28;20212;-74
2021/03/19 03:40:57;;;;;;;16.60;9.70;;;2.80;92.20;;;;;;5042392;28;20192;-73
2021/03/19 03:43:23;;;;;;;18.73;10.80;;;2.80;92.30;;;;;;5038657;28;20467;-73
2021/03/19 03:45:50;;;;;;;18.80;10.17;;;2.80;92.20;;;;;;5053513;28;20180;-74
2021/03/19 03:48:18;;;;;;;23.13;10.80;;;2.80;92.20;;;;;;5050423;28;20828;-72
2021/03/19 03:50:45;;;;;;;19.00;10.40;;;2.80;92.00;;;;;;5049908;28;20973;-70
2021/03/19 03:53:11;;;;;;;24.70;11.80;;;2.90;91.80;;;;;;5037846;28;20663;-71
2021/03/19 03:55:39;;;;;;;22.03;10.90;;;2.90;91.70;;;;;;5037885;28;20692;-72
2021/03/19 03:58:05;;;;;;;21.37;11.17;;;2.90;91.80;;;;;;5043841;28;20423;-71
2021/03/19 04:00:32;;;;;;;17.73;10.38;;;2.90;91.80;;;;;;5046487;28;20461;-72
2021/03/19 04:03:02;;;;;;;22.70;9.55;;;2.90;91.90;;;;;;5039195;28;20193;-73
2021/03/19 04:05:35;;;;;;;19.03;10.60;;;3.00;91.70;;;;;;5049039;28;20184;-72
2021/03/19 04:08:01;;;;;;;20.35;10.93;;;3.00;91.40;;;;;;5049683;28;20450;-72
2021/03/19 04:10:27;;;;;;;22.33;11.17;;;2.90;91.30;;;;;;5033302;28;20251;-73
2021/03/19 04:12:53;;;;;;;23.80;11.93;;;2.90;91.30;;;;;;5039385;28;20316;-72
2021/03/19 04:15:20;;;;;;;20.53;12.00;;;2.80;91.30;;;;;;5033782;28;20243;-72
2021/03/19 04:17:46;;;;;;;21.15;11.27;;;2.80;91.50;;;;;;5044693;28;20952;-72
2021/03/19 04:20:17;;;;;;;23.67;12.10;;;2.80;91.70;;;;;;5035464;28;20545;-74
2021/03/19 04:22:44;;;;;;;19.23;10.55;;;2.80;91.80;;;;;;5035495;28;20486;-74
2021/03/19 04:25:11;;;;;;;23.73;11.65;;;2.80;91.90;;;;;;5034744;28;20205;-72
2021/03/19 04:27:46;;;;;;;35.30;12.90;;;2.80;92.00;;;;;;5032696;28;20598;-72
2021/03/19 04:30:25;;;;;;;21.67;11.90;;;2.80;92.10;;;;;;5031408;28;20268;-72
2021/03/19 04:32:52;;;;;;;20.65;11.50;;;2.90;92.10;;;;;;5030661;28;20251;-71
2021/03/19 04:35:20;;;;;;;18.08;10.80;;;2.90;92.20;;;;;;5023285;28;20261;-72
2021/03/19 04:37:47;;;;;;;22.85;13.57;;;2.80;92.00;;;;;;5027072;28;20186;-73
2021/03/19 04:40:14;;;;;;;22.27;12.25;;;2.70;91.90;;;;;;5031243;28;20271;-72
2021/03/19 04:42:40;;;;;;;22.67;12.35;;;2.70;92.20;;;;;;5022592;28;20575;-73
2021/03/19 04:45:10;;;;;;;21.65;11.90;;;2.70;92.30;;;;;;5029935;28;20771;-75
2021/03/19 04:47:35;;;;;;;28.30;12.77;;;2.70;92.50;;;;;;5032630;28;20319;-71
2021/03/19 04:50:03;;;;;;;21.93;12.03;;;2.80;92.50;;;;;;5036578;28;20678;-74
2021/03/19 04:52:29;;;;;;;26.42;13.90;;;2.80;92.50;;;;;;5032228;28;20582;-74
2021/03/19 04:54:55;;;;;;;20.17;12.70;;;2.80;92.50;;;;;;5029689;28;20296;-72
2021/03/19 04:57:20;;;;;;;24.60;13.17;;;2.80;92.60;;;;;;5031964;28;20557;-73
2021/03/19 04:59:46;;;;;;;21.37;11.40;;;2.80;92.70;;;;;;5032921;28;20746;-72
2021/03/19 05:02:12;;;;;;;24.60;12.80;;;2.90;92.70;;;;;;5032606;28;20181;-72
2021/03/19 05:04:37;;;;;;;26.30;11.70;;;2.90;92.50;;;;;;5031905;28;20276;-74
2021/03/19 05:07:08;;;;;;;19.33;11.40;;;2.90;92.30;;;;;;5033006;28;20609;-72
2021/03/19 05:09:35;;;;;;;22.77;11.85;;;2.90;92.30;;;;;;5043028;28;20195;-74
2021/03/19 05:12:02;;;;;;;19.43;11.80;;;2.90;92.20;;;;;;5050365;28;20243;-72
2021/03/19 05:14:28;;;;;;;25.98;13.27;;;2.90;92.20;;;;;;5031479;28;20487;-73
2021/03/19 05:16:54;;;;;;;26.40;12.67;;;2.90;92.30;;;;;;5033709;28;20185;-71
2021/03/19 05:19:21;;;;;;;22.07;12.27;;;2.80;92.50;;;;;;5031290;28;20185;-73
2021/03/19 05:21:47;;;;;;;23.33;12.80;;;2.80;92.60;;;;;;5030857;28;20808;-73
2021/03/19 05:24:14;;;;;;;18.65;11.23;;;2.80;92.60;;;;;;5029471;28;20573;-72
2021/03/19 05:26:40;;;;;;;24.70;12.10;;;2.80;92.70;;;;;;5032422;28;20184;-73
2021/03/19 05:29:10;;;;;;;21.17;12.65;;;2.80;92.70;;;;;;5033290;28;20423;-71
2021/03/19 05:31:36;;;;;;;25.20;12.47;;;2.80;92.70;;;;;;5033301;28;20193;-73
2021/03/19 05:34:03;;;;;;;22.97;11.60;;;2.80;92.70;;;;;;5035066;28;20467;-72
2021/03/19 05:36:31;;;;;;;20.97;11.87;;;2.80;92.50;;;;;;5024508;28;20416;-73
2021/03/19 05:38:57;;;;;;;23.80;12.10;;;2.80;92.50;;;;;;5052149;28;20427;-73
2021/03/19 05:41:27;;;;;;;23.63;11.87;;;2.80;92.60;;;;;;5041672;28;20423;-72
2021/03/19 05:44:17;;;;;;;20.80;10.67;;;2.80;92.50;;;;;;5035592;28;20471;-77
2021/03/19 05:46:55;;;;;;;20.80;11.18;;;2.80;92.60;;;;;;5037461;28;20430;-78
2021/03/19 05:49:25;;;;;;;19.75;10.68;;;2.90;92.30;;;;;;5054899;28;20675;-76
2021/03/19 05:52:08;;;;;;;21.93;11.03;;;2.80;91.90;;;;;;5043676;28;20197;-77
2021/03/19 05:54:34;;;;;;;20.42;11.88;;;2.90;91.60;;;;;;5039695;28;20981;-76
2021/03/19 05:57:08;;;;;;;24.27;12.67;;;2.90;91.30;;;;;;5042662;28;20213;-78
2021/03/19 05:59:44;;;;;;;24.60;12.40;;;2.80;91.20;;;;;;5035199;28;20271;-77
2021/03/19 06:02:26;;;;;;;21.55;11.63;;;2.90;91.40;;;;;;5047448;28;20230;-75
2021/03/19 06:05:24;;;;;;;22.40;11.35;;;2.90;91.30;;;;;;5050695;28;20204;-74
2021/03/19 06:07:53;;;;;;;19.80;10.05;;;3.00;91.10;;;;;;5053641;28;20603;-75
2021/03/19 06:10:22;;;;;;;24.77;13.40;;;3.10;90.60;;;;;;5058616;28;20176;-73
2021/03/19 06:12:51;;;;;;;29.30;15.40;;;3.10;90.70;;;;;;5049283;28;20221;-72
2021/03/19 06:15:32;;;;;;;28.23;14.73;;;3.00;91.50;;;;;;5048743;28;20878;-73
2021/03/19 06:18:01;;;;;;;29.60;13.40;;;3.10;92.20;;;;;;5053161;28;20249;-73
2021/03/19 06:20:28;;;;;;;25.50;13.68;;;3.10;92.20;;;;;;5047807;28;20817;-72
2021/03/19 06:23:18;;;;;;;22.33;12.02;;;3.00;92.40;;;;;;5042846;28;20184;-73
2021/03/19 06:25:57;;;;;;;27.27;13.10;;;2.90;92.30;;;;;;5019519;28;20188;-72
2021/03/19 06:28:25;;;;;;;20.98;11.90;;;2.80;92.60;;;;;;5049442;28;20188;-74
2021/03/19 06:31:11;;;;;;;24.95;13.70;;;2.70;92.50;;;;;;5051220;28;20192;-72
2021/03/19 06:33:37;;;;;;;28.00;12.80;;;2.60;92.80;;;;;;5039479;28;20307;-72
2021/03/19 06:36:16;;;;;;;29.33;14.90;;;2.60;93.10;;;;;;5019384;28;20264;-74
2021/03/19 06:38:48;;;;;;;31.85;15.57;;;2.70;92.90;;;;;;5019727;28;20553;-73
2021/03/19 06:41:38;;;;;;;33.35;15.20;;;2.70;93.70;;;;;;5045391;28;20263;-72
2021/03/19 06:44:20;;;;;;;36.53;15.75;;;2.70;94.30;;;;;;5027238;28;20209;-72
2021/03/19 06:46:48;;;;;;;30.77;15.82;;;2.70;94.90;;;;;;5030762;28;20251;-71
2021/03/19 06:49:17;;;;;;;33.55;15.85;;;2.60;94.90;;;;;;5047677;28;20204;-73
2021/03/19 06:51:55;;;;;;;34.17;17.10;;;2.60;95.10;;;;;;5041519;28;20828;-71
2021/03/19 06:54:26;;;;;;;33.90;16.30;;;2.60;95.30;;;;;;5038285;28;20777;-71
2021/03/19 06:57:05;;;;;;;31.43;15.40;;;2.70;95.60;;;;;;5040728;28;20428;-74
2021/03/19 06:59:44;;;;;;;37.70;17.47;;;2.70;95.60;;;;;;5031306;28;20478;-73
2021/03/19 07:02:31;;;;;;;36.53;17.40;;;2.80;95.50;;;;;;5032667;28;20451;-70
2021/03/19 07:05:10;;;;;;;34.92;17.15;;;2.80;95.40;;;;;;5039571;28;20247;-73
2021/03/19 07:07:44;;;;;;;34.90;16.77;;;2.80;95.40;;;;;;5036583;28;20180;-73
2021/03/19 07:10:37;;;;;;;37.97;16.15;;;2.80;94.80;;;;;;5037031;28;20187;-72
2021/03/19 07:13:24;;;;;;;29.80;14.43;;;2.80;94.80;;;;;;5051242;28;20210;-73
2021/03/19 07:16:18;;;;;;;32.15;16.55;;;2.90;94.80;;;;;;5019320;28;20652;-74
2021/03/19 07:18:46;;;;;;;35.40;16.60;;;2.80;94.90;;;;;;5045760;28;20189;-73
2021/03/19 07:21:28;;;;;;;37.30;16.40;;;2.90;95.10;;;;;;5042066;28;20956;-72
2021/03/19 07:24:44;;;;;;;33.10;16.40;;;3.00;95.10;;;;;;5043803;28;20447;-73
2021/03/19 07:27:34;;;;;;;34.42;17.17;;;3.20;94.70;;;;;;4970334;28;20526;-74
2021/03/19 07:30:15;;;;;;;33.20;17.58;;;3.30;94.00;;;;;;4954032;28;20198;-75
2021/03/19 07:33:03;;;;;;;37.05;16.85;;;3.30;93.70;;;;;;4953907;28;20223;-70
2021/03/19 07:35:58;;;;;;;41.55;18.15;;;3.30;93.50;;;;;;4964114;28;20191;-72
2021/03/19 07:39:00;;;;;;;30.58;16.17;;;3.20;93.20;;;;;;4967461;28;20220;-72
2021/03/19 07:41:46;;;;;;;34.65;16.20;;;3.10;93.30;;;;;;4970673;28;20241;-75
2021/03/19 07:44:24;;;;;;;32.20;16.20;;;3.10;93.60;;;;;;4962540;28;20587;-73
2021/03/19 07:46:58;;;;;;;32.77;15.63;;;3.20;93.70;;;;;;4983903;28;20419;-73
2021/03/19 07:49:44;;;;;;;37.35;16.88;;;3.10;93.60;;;;;;4983281;28;20444;-73
2021/03/19 07:52:33;;;;;;;39.38;17.05;;;3.10;93.80;;;;;;4970233;28;20225;-72
2021/03/19 07:55:07;;;;;;;31.30;14.95;;;3.00;94.00;;;;;;4980676;28;20262;-74
2021/03/19 07:57:39;;;;;;;29.42;14.45;;;2.80;94.00;;;;;;4973940;28;20246;-72
2021/03/19 08:00:19;;;;;;;37.78;16.77;;;2.70;94.60;;;;;;5042049;28;20187;-73
2021/03/19 08:03:00;;;;;;;37.30;16.20;;;2.80;94.90;;;;;;5031861;28;20181;-73
2021/03/19 08:05:35;;;;;;;35.28;16.25;;;2.80;95.30;;;;;;5030224;28;20268;-74
2021/03/19 08:08:13;;;;;;;35.95;15.25;;;2.90;95.30;;;;;;5030691;28;20632;-73
2021/03/19 08:11:05;;;;;;;37.05;16.15;;;2.90;95.30;;;;;;5034215;28;20188;-73
2021/03/19 08:13:53;;;;;;;33.17;15.57;;;2.90;95.20;;;;;;5016272;28;20242;-73
2021/03/19 08:16:29;;;;;;;31.35;13.93;;;2.80;95.20;;;;;;5042399;28;20184;-72
2021/03/19 08:19:35;;;;;;;33.60;15.15;;;2.80;95.60;;;;;;5052762;28;20191;-74
2021/03/19 08:22:38;;;;;;;29.63;14.93;;;3.00;95.80;;;;;;5034498;28;20189;-72
2021/03/19 08:25:17;;;;;;;39.30;14.95;;;3.00;95.80;;;;;;5030620;28;20248;-73
2021/03/19 08:27:52;;;;;;;32.88;15.23;;;3.10;96.00;;;;;;5040854;28;20199;-72
2021/03/19 08:30:37;;;;;;;34.65;15.10;;;3.20;95.90;;;;;;5049621;28;20192;-73
2021/03/19 08:33:06;;;;;;;24.92;12.52;;;3.30;95.60;;;;;;5038291;28;20209;-72
2021/03/19 08:35:52;;;;;;;33.17;14.07;;;3.30;95.30;;;;;;5037690;28;20261;-72
2021/03/19 08:38:30;;;;;;;27.85;13.00;;;3.30;95.30;;;;;;5034932;28;20416;-74
2021/03/19 08:41:08;;;;;;;28.17;13.10;;;3.10;94.80;;;;;;5037914;28;20675;-74
2021/03/19 08:43:46;;;;;;;28.75;13.77;;;3.10;95.20;;;;;;5031911;28;20533;-74
2021/03/19 08:46:34;;;;;;;25.98;13.00;;;3.10;95.30;;;;;;5034415;28;20272;-73
2021/03/19 08:49:23;;;;;;;31.70;13.23;;;3.00;94.70;;;;;;5030385;28;20205;-72
2021/03/19 08:51:49;;;;;;;30.88;13.20;;;3.00;94.90;;;;;;5013732;28;20208;-72
2021/03/19 08:54:23;;;;;;;29.48;13.30;;;3.10;95.30;;;;;;5045908;28;20895;-73
2021/03/19 08:57:15;;;;;;;26.90;12.07;;;3.10;95.60;;;;;;5049662;28;20797;-73
2021/03/19 08:59:41;;;;;;;27.77;12.82;;;3.10;95.10;;;;;;5021688;28;20188;-71
2021/03/19 09:02:32;;;;;;;29.37;13.03;;;3.00;95.50;;;;;;5036569;28;20185;-73
2021/03/19 09:04:58;;;;;;;31.67;12.43;;;2.90;95.90;;;;;;5043348;28;20904;-73
2021/03/19 09:07:32;;;;;;;30.20;13.43;;;3.00;96.30;;;;;;5034639;28;20195;-73
2021/03/19 09:10:18;;;;;;;26.00;12.27;;;3.10;96.40;;;;;;5022780;28;20263;-72
2021/03/19 09:12:56;;;;;;;29.83;12.90;;;3.10;96.10;;;;;;5015351;28;20521;-73
2021/03/19 09:15:22;;;;;;;24.50;11.65;;;3.30;96.10;;;;;;5032134;28;20788;-72
2021/03/19 09:17:59;;;;;;;36.23;13.70;;;3.30;95.50;;;;;;5038098;28;20181;-73
2021/03/19 09:20:38;;;;;;;34.85;15.32;;;3.30;95.50;;;;;;5030230;28;20514;-74
2021/03/19 09:23:10;;;;;;;30.92;14.10;;;3.30;95.40;;;;;;5030342;28;20185;-74
2021/03/19 09:25:53;;;;;;;29.90;13.05;;;3.50;95.20;;;;;;5029021;28;20193;-74
2021/03/19 09:28:30;;;;;;;32.13;13.38;;;3.60;94.50;;;;;;5029446;28;20242;-74
2021/03/19 09:30:59;;;;;;;28.23;13.20;;;3.40;92.40;;;;;;5028731;28;20189;-73
2021/03/19 09:33:43;;;;;;;27.07;11.40;;;3.50;92.90;;;;;;5027252;28;20498;-72
2021/03/19 09:36:46;;;;;;;25.00;12.43;;;3.50;91.70;;;;;;5011215;28;20451;-74
2021/03/19 09:39:50;;;;;;;25.67;11.00;;;3.30;92.20;;;;;;5041752;28;20501;-72
2021/03/19 09:42:21;;;;;;;28.20;11.45;;;3.30;92.70;;;;;;5032524;28;20510;-74
2021/03/19 09:44:59;;;;;;;23.00;11.80;;;3.20;92.90;;;;;;5032406;28;20204;-73
2021/03/19 09:48:08;;;;;;;26.67;11.57;;;3.30;92.80;;;;;;5047633;28;20515;-72
2021/03/19 09:50:34;;;;;;;28.00;12.50;;;3.50;91.70;;;;;;4987180;28;20449;-74
2021/03/19 09:53:07;;;;;;;25.90;11.27;;;3.70;91.70;;;;;;4951182;28;20571;-74
2021/03/19 09:55:51;;;;;;;28.47;12.90;;;3.90;91.60;;;;;;4950935;28;20430;-72
2021/03/19 09:58:40;;;;;;;26.13;12.03;;;4.20;91.20;;;;;;4951321;28;20521;-73
2021/03/19 10:01:26;;;;;;;23.47;12.50;;;4.20;89.70;;;;;;4967596;28;20475;-72
2021/03/19 10:03:53;;;;;;;23.87;11.13;;;4.30;89.30;;;;;;4952257;28;20473;-73
2021/03/19 10:06:26;;;;;;;21.67;10.37;;;4.10;88.30;;;;;;4977576;28;20425;-73
2021/03/19 10:09:03;;;;;;;27.97;11.40;;;4.20;88.70;;;;;;4975135;28;20834;-72
2021/03/19 10:11:29;;;;;;;21.80;9.50;;;4.30;88.60;;;;;;4986930;28;20441;-73
2021/03/19 10:14:11;;;;;;;24.60;10.93;;;4.30;86.00;;;;;;4956398;28;20964;-73
2021/03/19 10:16:38;;;;;;;21.97;10.77;;;4.40;86.60;;;;;;4968560;28;20828;-73
2021/03/19 10:19:11;;;;;;;20.33;10.40;;;4.60;86.30;;;;;;4968843;28;20433;-74
2021/03/19 10:21:45;;;;;;;22.87;9.47;;;4.70;86.20;;;;;;4968264;28;20489;-72
2021/03/19 10:24:12;;;;;;;17.00;9.43;;;4.50;82.20;;;;;;4968321;28;20454;-73
2021/03/19 10:26:53;;;;;;;18.00;9.07;;;4.40;83.30;;;;;;5003738;28;20431;-73
2021/03/19 10:29:18;;;;;;;17.20;8.83;;;4.50;84.10;;;;;;5029821;28;20426;-71
2021/03/19 10:31:54;;;;;;;16.30;9.10;;;4.50;83.10;;;;;;5038088;28;20423;-73
2021/03/19 10:34:45;;;;;;;17.30;9.00;;;4.40;83.40;;;;;;5038399;28;20212;-73
2021/03/19 10:37:36;;;;;;;16.47;9.07;;;4.00;85.20;;;;;;5020969;28;20478;-73
2021/03/19 10:40:14;;;;;;;22.52;10.25;;;3.90;87.80;;;;;;5045064;28;20427;-72
2021/03/19 10:42:49;;;;;;;23.47;10.47;;;3.80;89.50;;;;;;5025538;28;20185;-73
2021/03/19 10:45:33;;;;;;;24.43;12.17;;;3.90;91.00;;;;;;5030797;28;20431;-73
2021/03/19 10:48:23;;;;;;;26.43;10.80;;;3.90;91.50;;;;;;5045985;28;20825;-72
2021/03/19 10:51:07;;;;;;;19.53;10.83;;;3.90;91.90;;;;;;5046132;28;20518;-73
2021/03/19 10:53:48;;;;;;;19.80;10.00;;;4.10;92.00;;;;;;5043140;28;20466;-72
2021/03/19 10:56:16;;;;;;;24.77;10.30;;;4.40;91.00;;;;;;5038817;28;20411;-73
2021/03/19 10:58:46;;;;;;;19.20;9.77;;;4.70;90.70;;;;;;5051932;28;20433;-72
2021/03/19 11:01:37;;;;;;;22.60;9.77;;;4.70;88.90;;;;;;5052428;28;20415;-73
2021/03/19 11:04:25;;;;;;;20.20;8.90;;;4.60;89.50;;;;;;5050023;28;20483;-71
2021/03/19 11:06:52;;;;;;;18.07;9.40;;;4.80;90.10;;;;;;5037945;28;20462;-74
2021/03/19 11:09:21;;;;;;;16.20;8.23;;;4.70;88.30;;;;;;5043943;28;20455;-75
2021/03/19 11:11:51;;;;;;;12.67;6.67;;;4.40;89.20;;;;;;5058643;28;20423;-74
2021/03/19 11:14:21;;;;;;;13.20;7.03;;;4.30;89.30;;;;;;5053353;28;20475;-72
2021/03/19 11:16:51;;;;;;;9.47;5.50;;;4.40;89.50;;;;;;5051508;28;20427;-74
2021/03/19 11:19:23;;;;;;;10.57;5.80;;;4.30;88.00;;;;;;5050743;28;20510;-74
2021/03/19 11:22:06;;;;;;;12.10;6.00;;;4.30;89.30;;;;;;5050885;28;20530;-71
2021/03/19 11:24:36;;;;;;;9.50;5.70;;;4.40;88.30;;;;;;5050980;28;20510;-73
2021/03/19 11:27:17;;;;;;;10.67;5.67;;;4.30;87.60;;;;;;5031051;28;20432;-73
2021/03/19 11:29:44;;;;;;;12.70;5.33;;;4.40;89.50;;;;;;5031508;28;20435;-73
2021/03/19 11:32:13;;;;;;;11.17;6.03;;;4.20;88.60;;;;;;5052640;28;20431;-73
2021/03/19 11:34:46;;;;;;;9.57;5.93;;;3.90;89.60;;;;;;5040398;28;21045;-73
2021/03/19 11:37:14;;;;;;;13.23;6.20;;;3.90;90.20;;;;;;5020382;28;20473;-73
2021/03/19 11:40:08;;;;;;;8.00;4.90;;;4.00;90.10;;;;;;5044042;28;20515;-73
2021/03/19 11:42:40;;;;;;;9.83;5.50;;;4.10;88.70;;;;;;5036384;28;20440;-73
2021/03/19 11:45:32;;;;;;;10.47;5.27;;;4.20;87.60;;;;;;5055781;28;20802;-70
2021/03/19 11:48:18;;;;;;;10.93;5.17;;;4.10;86.80;;;;;;5049257;28;20539;-74
2021/03/19 11:50:48;;;;;;;10.40;5.30;;;4.30;86.90;;;;;;5054561;28;20437;-74
2021/03/19 11:53:19;;;;;;;12.23;6.43;;;4.40;85.50;;;;;;5052990;28;20463;-73
2021/03/19 11:55:48;;;;;;;11.07;5.40;;;4.50;85.70;;;;;;5041483;28;20430;-72
2021/03/19 11:58:17;;;;;;;10.60;6.03;;;4.50;85.30;;;;;;5042840;28;21085;-73
2021/03/19 12:00:43;;;;;;;11.53;6.10;;;4.20;85.20;;;;;;5049263;28;20419;-72
2021/03/19 12:03:36;;;;;;;15.70;6.63;;;4.10;86.80;;;;;;5056398;28;20446;-74
2021/03/19 12:06:04;;;;;;;13.77;6.60;;;4.00;86.00;;;;;;5018918;28;20926;-74
2021/03/19 12:08:31;;;;;;;14.85;7.30;;;3.80;86.30;;;;;;5044166;28;20446;-73
2021/03/19 12:10:59;;;;;;;14.10;6.93;;;3.80;85.70;;;;;;5038074;28;20188;-73
2021/03/19 12:13:25;;;;;;;14.20;7.60;;;3.60;85.90;;;;;;5050089;28;20479;-73
2021/03/19 12:15:51;;;;;;;15.20;7.67;;;3.70;87.00;;;;;;5038054;28;20415;-76
2021/03/19 12:18:20;;;;;;;14.93;7.10;;;3.90;86.90;;;;;;5038273;28;20427;-73
2021/03/19 12:20:46;;;;;;;16.27;8.10;;;4.00;86.20;;;;;;5052528;28;20909;-75
2021/03/19 12:23:12;;;;;;;12.80;6.57;;;4.10;85.50;;;;;;5039228;28;20440;-72
2021/03/19 12:25:38;;;;;;;16.50;7.80;;;4.10;84.60;;;;;;5042348;28;21077;-74
2021/03/19 12:28:10;;;;;;;14.50;7.37;;;4.00;83.60;;;;;;5044851;28;20204;-74
2021/03/19 12:30:37;;;;;;;14.63;7.60;;;3.90;83.00;;;;;;5042899;28;20419;-73
2021/03/19 12:33:04;;;;;;;14.70;7.50;;;3.80;83.80;;;;;;5041520;28;20466;-72
2021/03/19 12:35:30;;;;;;;16.25;8.15;;;3.70;84.00;;;;;;5026634;28;20461;-74
2021/03/19 12:37:57;;;;;;;23.63;9.50;;;3.60;85.00;;;;;;5033354;28;20185;-72
2021/03/19 12:40:25;;;;;;;17.50;8.15;;;3.60;84.90;;;;;;5044955;28;20440;-72
2021/03/19 12:42:51;;;;;;;19.97;8.50;;;3.70;85.20;;;;;;5032450;28;20189;-75
2021/03/19 12:45:19;;;;;;;19.47;9.53;;;3.70;84.90;;;;;;5030646;28;20539;-75
2021/03/19 12:47:45;;;;;;;22.27;10.73;;;3.70;86.50;;;;;;5046994;28;20427;-74
2021/03/19 12:50:12;;;;;;;22.83;10.17;;;3.80;87.00;;;;;;5050668;28;20695;-73
2021/03/19 12:52:38;;;;;;;27.20;10.70;;;3.60;87.80;;;;;;5030796;28;20434;-71
2021/03/19 12:55:05;;;;;;;28.73;11.67;;;3.60;89.00;;;;;;5032553;28;20448;-74
2021/03/19 12:57:31;;;;;;;25.23;11.90;;;3.60;89.00;;;;;;5033548;28;20430;-75
2021/03/19 12:59:56;;;;;;;26.07;11.50;;;3.50;89.60;;;;;;5032857;28;20428;-74
2021/03/19 13:02:22;;;;;;;24.90;11.57;;;3.40;90.20;;;;;;5044500;28;20185;-73
2021/03/19 13:04:48;;;;;;;27.10;12.45;;;3.30;90.30;;;;;;5031284;28;20204;-73
2021/03/19 13:07:14;;;;;;;29.40;12.90;;;3.20;90.40;;;;;;5045184;28;20189;-72
2021/03/19 13:09:40;;;;;;;30.67;12.83;;;3.20;90.70;;;;;;5041106;28;20431;-74
2021/03/19 13:12:06;;;;;;;26.50;12.20;;;3.30;90.70;;;;;;5036315;28;20189;-73
2021/03/19 13:14:33;;;;;;;26.80;12.17;;;3.30;90.40;;;;;;5039470;28;20228;-71
2021/03/19 13:17:00;;;;;;;29.40;11.93;;;3.40;89.90;;;;;;5030866;28;20424;-73